createdAt,value
2024-03-22T00:05:04.619Z,1017.19
2024-03-22T00:11:26.639Z,1017.11
2024-03-22T00:17:46.659Z,1017.05
2024-03-22T00:24:08.637Z,1017.02
2024-03-22T00:30:28.639Z,1017.06
2024-03-22T00:36:50.660Z,1016.92
2024-03-22T00:43:10.643Z,1016.82
2024-03-22T00:49:32.635Z,1016.8
2024-03-22T00:55:52.656Z,1016.67
2024-03-22T01:02:14.636Z,1016.6
2024-03-22T01:08:34.651Z,1016.58
2024-03-22T01:14:56.673Z,1016.52
2024-03-22T01:21:16.635Z,1016.43
2024-03-22T01:27:38.633Z,1016.3
2024-03-22T01:33:58.626Z,1016.2
2024-03-22T01:40:20.654Z,1016.17
2024-03-22T01:46:40.628Z,1016.18
2024-03-22T01:53:02.631Z,1016.07
2024-03-22T01:59:22.605Z,1015.99
2024-03-22T02:05:44.638Z,1015.9
2024-03-22T02:12:04.622Z,1015.85
2024-03-22T02:18:26.673Z,1015.74
2024-03-22T02:24:46.632Z,1015.54
2024-03-22T02:31:08.666Z,1015.52
2024-03-22T02:37:28.657Z,1015.46
2024-03-22T02:43:50.618Z,1015.47
2024-03-22T02:50:10.640Z,1015.42
2024-03-22T02:56:32.666Z,1015.28
2024-03-22T03:02:52.610Z,1015.19
2024-03-22T03:09:14.627Z,1015.02
2024-03-22T03:15:34.663Z,1014.96
2024-03-22T03:21:56.639Z,1014.95
2024-03-22T03:28:16.685Z,1014.89
2024-03-22T03:34:38.681Z,1014.95
2024-03-22T03:40:58.620Z,1014.89
2024-03-22T03:47:20.632Z,1014.8
2024-03-22T03:53:40.637Z,1014.71
2024-03-22T04:00:02.644Z,1014.74
2024-03-22T04:06:22.674Z,1014.64
2024-03-22T04:12:44.648Z,1014.63
2024-03-22T04:36:06.140Z,1014.48
2024-03-22T04:42:25.615Z,1014.37
2024-03-22T04:48:47.652Z,1014.27
2024-03-22T04:55:07.632Z,1014.18
2024-03-22T05:01:29.655Z,1014.17
2024-03-22T05:07:49.606Z,1014.04
2024-03-22T05:14:11.660Z,1014.02
2024-03-22T05:20:31.627Z,1013.88
2024-03-22T05:26:53.615Z,1013.83
2024-03-22T05:33:13.635Z,1013.82
2024-03-22T05:39:35.624Z,1013.86
2024-03-22T05:45:55.657Z,1013.79
2024-03-22T05:52:17.641Z,1013.67
2024-03-22T05:58:37.631Z,1013.66
2024-03-22T06:04:59.669Z,1013.6
2024-03-22T06:11:19.646Z,1013.59
2024-03-22T06:17:41.699Z,1013.57
2024-03-22T06:24:01.663Z,1013.4
2024-03-22T06:30:23.654Z,1013.46
2024-03-22T06:36:43.648Z,1013.4
2024-03-22T06:43:05.630Z,1013.44
2024-03-22T06:49:25.628Z,1013.4
2024-03-22T06:55:47.641Z,1013.42
2024-03-22T07:02:07.626Z,1013.34
2024-03-22T07:08:29.650Z,1013.34
2024-03-22T07:14:49.654Z,1013.29
2024-03-22T07:21:11.659Z,1013.26
2024-03-22T07:27:31.657Z,1013.33
2024-03-22T07:33:53.626Z,1013.23
2024-03-22T07:40:13.648Z,1013.07
2024-03-22T07:46:35.638Z,1013.01
2024-03-22T07:52:55.669Z,1012.95
2024-03-22T07:59:17.620Z,1012.91
2024-03-22T08:05:37.624Z,1012.84
2024-03-22T08:11:59.623Z,1012.79
2024-03-22T08:18:19.613Z,1012.8
2024-03-22T08:24:41.689Z,1012.74
2024-03-22T08:31:01.621Z,1012.71
2024-03-22T08:37:23.668Z,1012.68
2024-03-22T08:43:43.666Z,1012.51
2024-03-22T08:50:05.680Z,1012.41
2024-03-22T08:56:25.638Z,1012.34
2024-03-22T09:02:47.844Z,1012.28
2024-03-22T09:09:07.833Z,1012.29
2024-03-22T09:15:29.736Z,1012.27
2024-03-22T09:21:49.689Z,1012.26
2024-03-22T09:28:11.848Z,1012.21
2024-03-22T09:44:18.626Z,1012.08
2024-03-22T09:50:38.628Z,1011.99
2024-03-22T09:57:00.666Z,1012
2024-03-22T10:03:20.632Z,1011.99
2024-03-22T10:09:42.618Z,1011.85
2024-03-22T10:16:02.612Z,1011.8
2024-03-22T10:22:24.654Z,1011.78
2024-03-22T10:28:44.617Z,1011.66
2024-03-22T10:35:06.632Z,1011.59
2024-03-22T10:41:26.637Z,1011.57
2024-03-22T10:47:48.662Z,1011.48
2024-03-22T10:54:08.898Z,1011.4
2024-03-22T11:00:30.633Z,1011.26
2024-03-22T11:06:50.629Z,1011.2
2024-03-22T11:13:12.624Z,1011.12
2024-03-22T11:19:32.637Z,1010.96
2024-03-22T11:25:54.615Z,1010.88
2024-03-22T11:32:14.623Z,1010.86
2024-03-22T11:38:36.654Z,1010.73
2024-03-22T11:44:56.626Z,1010.67
2024-03-22T11:51:18.629Z,1010.68
2024-03-22T11:57:38.813Z,1010.59
2024-03-22T12:04:00.646Z,1010.53
2024-03-22T12:10:20.635Z,1010.45
2024-03-22T12:16:42.829Z,1010.42
2024-03-22T12:23:02.653Z,1010.32
2024-03-22T12:29:24.646Z,1010.17
2024-03-22T12:35:44.776Z,1010.14
2024-03-22T12:42:06.613Z,1010.04
2024-03-22T12:48:26.618Z,1009.82
2024-03-22T12:54:48.637Z,1009.83
2024-03-22T13:01:08.625Z,1009.83
2024-03-22T13:07:30.611Z,1009.63
2024-03-22T13:13:50.656Z,1009.44
2024-03-22T13:20:12.658Z,1009.48
2024-03-22T13:26:32.690Z,1009.32
2024-03-22T13:32:54.886Z,1009.15
2024-03-22T13:39:14.859Z,1009.02
2024-03-22T13:45:36.631Z,1009
2024-03-22T13:51:56.751Z,1008.79
2024-03-22T13:58:18.637Z,1008.66
2024-03-22T14:04:38.622Z,1008.64
2024-03-22T14:11:00.631Z,1008.62
2024-03-22T14:17:19.622Z,1008.43
2024-03-22T14:23:41.632Z,1008.34
2024-03-22T14:30:01.661Z,1008.27
2024-03-22T14:36:23.682Z,1008.1
2024-03-22T14:42:43.796Z,1008.12
2024-03-22T15:05:10.650Z,1007.94
2024-03-22T15:11:32.643Z,1007.74
2024-03-22T15:17:52.618Z,1007.68
2024-03-22T15:24:14.636Z,1007.64
2024-03-22T15:30:34.674Z,1007.57
2024-03-22T15:36:56.822Z,1007.44
2024-03-22T15:43:17.791Z,1007.4
2024-03-22T15:49:39.625Z,1007.37
2024-03-22T15:55:59.660Z,1007.24
2024-03-22T16:02:22.267Z,1007.23
2024-03-22T16:08:41.631Z,1007.18
2024-03-22T16:15:03.657Z,1007.23
2024-03-22T16:21:23.634Z,1007.09
2024-03-22T16:27:45.633Z,1007.06
2024-03-22T16:34:05.628Z,1007.07
2024-03-22T16:40:27.663Z,1006.99
2024-03-22T16:46:47.610Z,1007
2024-03-22T16:53:08.623Z,1007.01
2024-03-22T16:59:28.690Z,1006.97
2024-03-22T17:05:50.633Z,1006.98
2024-03-22T17:12:10.618Z,1006.96
2024-03-22T17:18:32.652Z,1007.01
2024-03-22T17:24:52.612Z,1006.99
2024-03-22T17:31:15.598Z,1007.03
2024-03-22T17:37:34.627Z,1006.98
2024-03-22T17:43:56.621Z,1006.94
2024-03-22T17:50:16.602Z,1007.05
2024-03-22T17:56:38.776Z,1007.06
2024-03-22T18:02:59.477Z,1007.1
2024-03-22T18:09:20.625Z,1007.13
2024-03-22T18:15:40.967Z,1007.22
2024-03-22T18:22:02.605Z,1007.38
2024-03-22T18:28:22.620Z,1007.37
2024-03-22T18:34:44.653Z,1007.35
2024-03-22T18:41:04.635Z,1007.3
2024-03-22T18:47:26.636Z,1007.32
2024-03-22T18:53:46.636Z,1007.34
2024-03-22T19:00:08.629Z,1007.26
2024-03-22T19:06:28.674Z,1007.15
2024-03-22T19:12:50.680Z,1007.14
2024-03-22T19:19:10.629Z,1007.05
2024-03-22T19:25:31.657Z,1007.04
2024-03-22T19:31:51.658Z,1006.93
2024-03-22T19:38:13.619Z,1006.92
2024-03-22T19:44:33.615Z,1006.88
2024-03-22T19:50:55.641Z,1006.89
2024-03-22T20:12:44.634Z,1006.69
2024-03-22T20:19:06.634Z,1006.68
2024-03-22T20:25:26.632Z,1006.62
2024-03-22T20:31:48.635Z,1006.52
2024-03-22T20:38:08.658Z,1006.42
2024-03-22T20:44:30.634Z,1006.22
2024-03-22T20:50:50.635Z,1006.09
2024-03-22T20:57:12.644Z,1006.15
2024-03-22T21:03:32.613Z,1005.96
2024-03-22T21:09:54.627Z,1005.83
2024-03-22T21:16:14.608Z,1005.75
2024-03-22T21:22:36.629Z,1005.63
2024-03-22T21:28:59.079Z,1005.52
2024-03-22T21:35:18.634Z,1005.37
2024-03-22T21:41:38.622Z,1005.26
2024-03-22T21:48:00.639Z,1005.13
2024-03-22T21:54:20.624Z,1005.1
2024-03-22T22:00:42.826Z,1004.92
2024-03-22T22:07:02.646Z,1004.86
2024-03-22T22:13:24.630Z,1004.71
2024-03-22T22:19:44.651Z,1004.57
2024-03-22T22:26:06.628Z,1004.38
2024-03-22T22:32:26.607Z,1004.37
2024-03-22T22:38:48.635Z,1004.49
2024-03-22T22:45:08.629Z,1004.43
2024-03-22T22:51:30.632Z,1004.31
2024-03-22T22:57:50.624Z,1004.28
2024-03-22T23:20:48.668Z,1003.99
2024-03-22T23:27:08.622Z,1003.96
2024-03-22T23:33:30.670Z,1003.95
2024-03-22T23:39:50.635Z,1003.9
2024-03-22T23:46:12.668Z,1003.94
2024-03-22T23:52:32.630Z,1003.79
2024-03-22T23:58:54.632Z,1003.78
